createdAt,value
2022-10-04T00:00:49.800Z,12.74
2022-10-04T00:03:21.612Z,12.73
2022-10-04T00:05:53.110Z,12.76
2022-10-04T00:08:24.922Z,12.74
2022-10-04T00:10:56.402Z,12.75
2022-10-04T00:13:28.237Z,12.74
2022-10-04T00:15:59.804Z,12.78
2022-10-04T00:18:32.044Z,12.77
2022-10-04T00:21:03.584Z,12.79
2022-10-04T00:23:35.576Z,12.78
2022-10-04T00:26:07.101Z,12.77
2022-10-04T00:28:40.307Z,12.72
2022-10-04T00:31:11.837Z,12.75
2022-10-04T00:33:43.323Z,12.75
2022-10-04T00:36:14.804Z,12.71
2022-10-04T00:38:46.592Z,12.72
2022-10-04T00:41:18.085Z,12.74
2022-10-04T00:43:49.851Z,12.72
2022-10-04T00:46:22.372Z,12.64
2022-10-04T00:48:54.220Z,12.68
2022-10-04T00:51:25.894Z,12.72
2022-10-04T00:53:57.941Z,12.71
2022-10-04T00:56:29.438Z,12.71
2022-10-04T00:59:01.872Z,12.62
2022-10-04T01:01:33.889Z,12.68
2022-10-04T01:04:05.709Z,12.72
2022-10-04T01:06:37.210Z,12.69
2022-10-04T01:09:09.206Z,12.64
2022-10-04T01:11:40.946Z,12.66
2022-10-04T01:14:12.752Z,12.59
2022-10-04T01:16:44.481Z,12.59
2022-10-04T01:19:16.261Z,12.61
2022-10-04T01:21:47.738Z,12.56
2022-10-04T01:24:19.515Z,12.55
2022-10-04T01:26:51.027Z,12.57
2022-10-04T01:29:22.784Z,12.57
2022-10-04T01:31:54.308Z,12.56
2022-10-04T01:34:26.165Z,12.56
2022-10-04T01:36:57.641Z,12.46
2022-10-04T01:39:29.396Z,12.45
2022-10-04T01:42:01.693Z,12.44
2022-10-04T01:44:33.468Z,12.38
2022-10-04T01:47:05.259Z,12.37
2022-10-04T01:49:37.131Z,12.34
2022-10-04T01:52:08.603Z,12.31
2022-10-04T01:54:40.146Z,12.32
2022-10-04T01:57:12.191Z,12.32
2022-10-04T01:59:43.657Z,12.30
2022-10-04T02:02:15.628Z,12.24
2022-10-04T02:04:48.222Z,12.20
2022-10-04T02:07:20.171Z,12.18
2022-10-04T02:09:51.687Z,12.10
2022-10-04T02:12:23.495Z,12.05
2022-10-04T02:14:55.596Z,11.96
2022-10-04T02:17:28.535Z,11.89
2022-10-04T02:20:01.312Z,11.88
2022-10-04T02:22:33.124Z,11.83
2022-10-04T02:25:04.587Z,11.83
2022-10-04T02:27:36.939Z,11.87
2022-10-04T02:30:08.429Z,11.92
2022-10-04T02:32:58.404Z,11.93
2022-10-04T02:35:29.898Z,11.96
2022-10-04T02:38:01.911Z,11.96
2022-10-04T02:40:33.753Z,11.96
2022-10-04T02:43:05.756Z,12.00
2022-10-04T02:45:37.211Z,12.02
2022-10-04T02:48:08.955Z,12.00
2022-10-04T02:50:40.407Z,12.02
2022-10-04T02:53:12.229Z,12.03
2022-10-04T02:55:43.695Z,12.03
2022-10-04T02:58:15.477Z,12.00
2022-10-04T03:00:47.015Z,11.87
2022-10-04T03:03:18.924Z,11.74
2022-10-04T03:05:50.690Z,11.70
2022-10-04T03:08:22.159Z,11.68
2022-10-04T03:10:53.665Z,11.61
2022-10-04T03:13:25.130Z,11.55
2022-10-04T03:15:56.983Z,11.52
2022-10-04T03:18:28.921Z,11.50
2022-10-04T03:21:00.703Z,11.41
2022-10-04T03:23:33.860Z,11.37
2022-10-04T03:26:05.326Z,11.36
2022-10-04T03:28:37.140Z,11.31
2022-10-04T03:31:08.708Z,11.28
2022-10-04T03:33:40.688Z,11.23
2022-10-04T03:36:12.185Z,11.20
2022-10-04T03:38:44.030Z,11.18
2022-10-04T03:41:16.583Z,11.15
2022-10-04T03:43:49.707Z,11.12
2022-10-04T03:46:22.857Z,11.11
2022-10-04T03:48:54.642Z,11.09
2022-10-04T03:51:26.104Z,11.10
2022-10-04T03:53:58.243Z,11.08
2022-10-04T03:56:29.703Z,11.06
2022-10-04T03:59:01.549Z,11.07
2022-10-04T04:01:33.398Z,11.10
2022-10-04T04:04:06.091Z,11.14
2022-10-04T04:06:37.631Z,11.24
2022-10-04T04:09:09.467Z,11.28
2022-10-04T04:11:41.149Z,11.36
2022-10-04T04:14:13.128Z,11.43
2022-10-04T04:16:44.657Z,11.49
2022-10-04T04:19:16.875Z,11.57
2022-10-04T04:21:48.360Z,11.60
2022-10-04T04:24:24.172Z,11.68
2022-10-04T04:26:55.635Z,11.73
2022-10-04T04:29:27.154Z,11.78
2022-10-04T04:31:58.641Z,11.80
2022-10-04T04:34:30.444Z,11.81
2022-10-04T04:37:02.012Z,11.80
2022-10-04T04:39:36.763Z,11.77
2022-10-04T04:42:08.560Z,11.76
2022-10-04T04:44:40.041Z,11.72
2022-10-04T04:47:15.178Z,11.74
2022-10-04T04:49:49.011Z,11.70
2022-10-04T04:52:20.859Z,11.65
2022-10-04T04:54:53.050Z,11.54
2022-10-04T04:57:24.931Z,11.47
2022-10-04T04:59:56.448Z,11.42
2022-10-04T05:02:28.363Z,11.41
2022-10-04T05:04:59.921Z,11.40
2022-10-04T05:07:31.673Z,11.42
2022-10-04T05:10:03.161Z,11.40
2022-10-04T05:12:35.139Z,11.42
2022-10-04T05:15:07.146Z,11.40
2022-10-04T05:17:38.981Z,11.40
2022-10-04T05:20:10.440Z,11.46
2022-10-04T05:22:42.492Z,11.49
2022-10-04T05:25:14.529Z,11.58
2022-10-04T05:27:46.240Z,11.67
2022-10-04T05:30:17.692Z,11.74
2022-10-04T05:32:49.517Z,11.85
2022-10-04T05:35:21.038Z,11.92
2022-10-04T05:37:53.623Z,11.98
2022-10-04T05:40:25.098Z,12.11
2022-10-04T05:42:58.676Z,12.24
2022-10-04T05:45:30.204Z,12.33
2022-10-04T05:48:02.198Z,12.38
2022-10-04T05:50:33.651Z,12.43
2022-10-04T05:53:05.804Z,12.54
2022-10-04T05:55:37.591Z,12.67
2022-10-04T05:58:09.375Z,12.65
2022-10-04T06:00:40.880Z,12.73
2022-10-04T06:03:12.737Z,12.67
2022-10-04T06:05:44.213Z,12.78
2022-10-04T06:08:16.175Z,12.91
2022-10-04T06:10:47.677Z,12.95
2022-10-04T06:13:19.244Z,13.02
2022-10-04T06:15:50.760Z,13.02
2022-10-04T06:18:22.609Z,13.19
2022-10-04T06:20:54.903Z,13.28
2022-10-04T06:23:26.887Z,13.39
2022-10-04T06:25:58.385Z,13.48
2022-10-04T06:28:30.240Z,13.53
2022-10-04T06:31:01.799Z,13.44
2022-10-04T06:33:33.707Z,13.36
2022-10-04T06:36:06.147Z,13.39
2022-10-04T06:38:38.044Z,13.40
2022-10-04T06:41:09.519Z,13.20
2022-10-04T06:43:41.501Z,13.13
2022-10-04T06:46:13.126Z,13.10
2022-10-04T06:48:45.013Z,13.20
2022-10-04T06:51:16.501Z,13.07
2022-10-04T06:53:48.305Z,13.05
2022-10-04T06:56:19.795Z,13.15
2022-10-04T06:58:52.156Z,13.08
2022-10-04T07:01:23.735Z,13.02
2022-10-04T07:03:55.603Z,13.09
2022-10-04T07:06:27.160Z,13.01
2022-10-04T07:09:03.410Z,13.17
2022-10-04T07:11:34.889Z,13.28
2022-10-04T07:14:06.771Z,13.31
2022-10-04T07:16:38.330Z,13.53
2022-10-04T07:19:10.257Z,13.73
2022-10-04T07:21:46.201Z,13.67
2022-10-04T07:24:18.728Z,13.98
2022-10-04T07:26:50.244Z,14.08
2022-10-04T07:29:22.056Z,13.47
2022-10-04T07:31:53.550Z,14.24
2022-10-04T07:34:25.513Z,14.28
2022-10-04T07:36:57.017Z,14.44
2022-10-04T07:39:28.856Z,14.23
2022-10-04T07:42:01.451Z,14.23
2022-10-04T07:44:33.640Z,14.02
2022-10-04T07:47:05.127Z,14.15
2022-10-04T07:49:37.022Z,14.35
2022-10-04T07:52:08.504Z,14.26
2022-10-04T07:54:40.320Z,14.48
2022-10-04T07:57:11.879Z,14.58
2022-10-04T07:59:43.815Z,14.44
2022-10-04T08:02:15.385Z,14.42
2022-10-04T08:04:47.256Z,14.51
2022-10-04T08:07:18.790Z,14.30
2022-10-04T08:09:50.639Z,14.22
2022-10-04T08:12:22.189Z,14.31
2022-10-04T08:14:54.076Z,14.56
2022-10-04T08:17:25.615Z,15.09
2022-10-04T08:19:57.507Z,15.41
2022-10-04T08:22:29.928Z,15.38
2022-10-04T08:25:01.798Z,15.66
2022-10-04T08:27:33.758Z,15.67
2022-10-04T08:30:05.340Z,15.75
2022-10-04T08:32:37.279Z,15.66
2022-10-04T08:35:08.799Z,15.62
2022-10-04T08:37:40.910Z,15.68
2022-10-04T08:40:13.433Z,16.11
2022-10-04T08:42:45.386Z,16.55
2022-10-04T08:45:16.989Z,16.61
2022-10-04T08:47:50.229Z,17.28
2022-10-04T08:50:21.725Z,17.28
2022-10-04T08:52:53.437Z,17.49
2022-10-04T08:55:24.920Z,16.87
2022-10-04T08:57:57.138Z,17.18
2022-10-04T09:00:29.792Z,17.27
2022-10-04T09:03:01.805Z,17.29
2022-10-04T09:05:33.376Z,17.72
2022-10-04T09:08:05.228Z,17.62
2022-10-04T09:10:36.782Z,17.79
2022-10-04T09:13:08.607Z,17.84
2022-10-04T09:15:40.249Z,17.96
2022-10-04T09:18:12.118Z,18.08
2022-10-04T09:20:43.651Z,18.65
2022-10-04T09:23:15.512Z,18.40
2022-10-04T09:25:47.043Z,18.52
2022-10-04T09:28:21.007Z,18.41
2022-10-04T09:30:53.268Z,18.36
2022-10-04T09:33:26.224Z,17.97
2022-10-04T09:35:57.728Z,17.83
2022-10-04T09:38:29.607Z,17.52
2022-10-04T09:41:03.728Z,17.47
2022-10-04T09:43:35.633Z,17.44
2022-10-04T09:46:07.991Z,17.58
2022-10-04T09:48:41.104Z,17.64
2022-10-04T09:51:13.136Z,17.76
2022-10-04T09:53:46.602Z,17.80
2022-10-04T09:56:18.205Z,17.96
2022-10-04T09:58:59.642Z,17.95
2022-10-04T10:01:31.247Z,17.45
2022-10-04T10:04:03.481Z,17.48
2022-10-04T10:06:34.981Z,17.60
2022-10-04T10:09:06.814Z,17.40
2022-10-04T10:11:57.035Z,17.27
2022-10-04T10:14:28.838Z,17.29
2022-10-04T10:17:00.987Z,17.39
2022-10-04T10:19:32.926Z,17.92
2022-10-04T10:22:04.425Z,18.55
2022-10-04T10:24:36.268Z,19.02
2022-10-04T10:27:08.293Z,19.14
2022-10-04T10:29:39.834Z,19.48
2022-10-04T10:32:11.954Z,19.41
2022-10-04T10:34:43.468Z,18.94
2022-10-04T10:37:16.389Z,18.57
2022-10-04T10:39:47.868Z,18.48
2022-10-04T10:42:20.141Z,18.71
2022-10-04T10:44:51.638Z,19.13
2022-10-04T10:47:23.671Z,19.52
2022-10-04T10:49:55.188Z,19.53
2022-10-04T10:52:27.189Z,19.46
2022-10-04T10:54:59.779Z,19.31
2022-10-04T10:57:34.208Z,19.29
2022-10-04T11:00:07.186Z,19.52
2022-10-04T11:02:49.314Z,19.37
2022-10-04T11:05:21.940Z,18.94
2022-10-04T11:07:53.795Z,18.94
2022-10-04T11:10:26.583Z,18.78
2022-10-04T11:12:58.423Z,19.15
2022-10-04T11:15:30.682Z,18.90
2022-10-04T11:18:02.517Z,19.05
2022-10-04T11:20:34.049Z,18.93
2022-10-04T11:23:05.959Z,19.17
2022-10-04T11:25:39.723Z,18.96
2022-10-04T11:28:13.290Z,18.81
2022-10-04T11:30:44.822Z,18.94
2022-10-04T11:33:17.673Z,19.31
2022-10-04T11:35:49.498Z,19.29
2022-10-04T11:38:23.318Z,19.87
2022-10-04T11:40:55.440Z,19.86
2022-10-04T11:43:27.229Z,21.03
2022-10-04T11:46:01.715Z,20.94
2022-10-04T11:48:33.565Z,21.50
2022-10-04T11:51:05.775Z,21.14
2022-10-04T11:53:38.998Z,20.72
2022-10-04T11:56:10.494Z,19.72
2022-10-04T11:58:42.772Z,20.66
2022-10-04T12:01:14.374Z,20.27
2022-10-04T12:03:46.261Z,19.82
2022-10-04T12:06:17.889Z,19.88
2022-10-04T12:08:49.831Z,19.58
2022-10-04T12:11:21.317Z,19.48
2022-10-04T12:13:53.319Z,19.44
2022-10-04T12:16:27.615Z,19.55
2022-10-04T12:19:00.380Z,19.71
2022-10-04T12:21:32.742Z,19.82
2022-10-04T12:24:04.848Z,19.72
2022-10-04T12:26:36.342Z,19.92
2022-10-04T12:29:08.181Z,20.26
2022-10-04T12:31:39.736Z,20.23
2022-10-04T12:34:17.684Z,20.26
2022-10-04T12:36:49.207Z,19.46
2022-10-04T12:39:21.106Z,19.06
2022-10-04T12:41:52.653Z,19.23
2022-10-04T12:44:24.485Z,19.78
2022-10-04T12:46:56.332Z,20.26
2022-10-04T12:49:28.100Z,20.70
2022-10-04T12:51:59.627Z,20.58
2022-10-04T12:54:33.548Z,20.50
2022-10-04T12:57:05.081Z,20.70
2022-10-04T12:59:36.884Z,20.89
2022-10-04T13:02:08.457Z,20.44
2022-10-04T13:04:40.268Z,20.37
2022-10-04T13:07:12.163Z,20.95
2022-10-04T13:09:55.136Z,20.61
2022-10-04T13:12:35.314Z,20.66
2022-10-04T13:15:07.247Z,20.37
2022-10-04T13:17:39.242Z,20.56
2022-10-04T13:20:10.747Z,20.10
2022-10-04T13:22:56.352Z,19.90
2022-10-04T13:25:28.660Z,19.61
2022-10-04T13:28:00.241Z,19.92
2022-10-04T13:30:32.346Z,19.91
2022-10-04T13:33:03.897Z,20.18
2022-10-04T13:35:37.010Z,20.24
2022-10-04T13:38:08.862Z,20.14
2022-10-04T13:40:40.372Z,20.20
2022-10-04T13:43:13.911Z,20.09
2022-10-04T13:45:45.480Z,20.03
2022-10-04T13:48:21.720Z,20.31
2022-10-04T13:50:53.554Z,20.59
2022-10-04T13:53:44.015Z,21.04
2022-10-04T13:56:34.190Z,20.64
2022-10-04T13:59:06.067Z,20.08
2022-10-04T14:01:37.632Z,19.99
2022-10-04T14:04:09.422Z,20.07
2022-10-04T14:06:41.021Z,20.80
2022-10-04T14:09:13.449Z,20.18
2022-10-04T14:11:45.187Z,20.27
2022-10-04T14:14:17.779Z,19.95
2022-10-04T14:16:49.338Z,19.23
2022-10-04T14:19:21.552Z,19.12
2022-10-04T14:21:53.083Z,18.97
2022-10-04T14:24:24.901Z,19.96
2022-10-04T14:26:56.350Z,20.28
2022-10-04T14:29:28.822Z,20.78
2022-10-04T14:32:00.329Z,20.70
2022-10-04T14:34:32.340Z,20.24
2022-10-04T14:37:04.399Z,19.89
2022-10-04T14:39:35.883Z,20.29
2022-10-04T14:42:07.377Z,20.32
2022-10-04T14:44:41.654Z,20.07
2022-10-04T14:47:16.387Z,19.89
2022-10-04T14:49:48.212Z,20.06
2022-10-04T14:52:20.558Z,20.00
2022-10-04T14:54:52.699Z,20.04
2022-10-04T14:57:24.159Z,19.89
2022-10-04T14:59:56.196Z,19.69
2022-10-04T15:02:31.652Z,19.23
2022-10-04T15:05:03.595Z,18.85
2022-10-04T15:07:35.041Z,18.41
2022-10-04T15:10:06.987Z,18.28
2022-10-04T15:13:05.711Z,18.10
2022-10-04T15:15:30.312Z,17.98
2022-10-04T15:18:03.401Z,17.96
2022-10-04T15:20:34.879Z,17.81
2022-10-04T15:23:06.685Z,17.76
2022-10-04T15:25:39.236Z,17.57
2022-10-04T15:28:11.125Z,17.62
2022-10-04T15:30:42.638Z,17.52
2022-10-04T15:33:14.514Z,17.44
2022-10-04T15:35:46.130Z,17.26
2022-10-04T15:38:17.916Z,17.10
2022-10-04T15:40:49.483Z,17.11
2022-10-04T15:43:21.490Z,17.16
2022-10-04T15:45:53.012Z,17.13
2022-10-04T15:48:24.855Z,17.08
2022-10-04T15:50:56.303Z,16.97
2022-10-04T15:53:28.229Z,16.90
2022-10-04T15:55:59.683Z,16.83
2022-10-04T15:58:31.556Z,16.72
2022-10-04T16:01:03.864Z,16.67
2022-10-04T16:03:35.709Z,16.59
2022-10-04T16:06:07.265Z,15.91
2022-10-04T16:08:41.726Z,16.48
2022-10-04T16:11:13.183Z,16.37
2022-10-04T16:13:45.757Z,16.33
2022-10-04T16:16:26.144Z,16.16
2022-10-04T16:18:58.158Z,16.00
2022-10-04T16:21:29.638Z,15.97
2022-10-04T16:24:01.599Z,15.89
2022-10-04T16:26:33.845Z,15.81
2022-10-04T16:29:05.636Z,15.69
2022-10-04T16:31:37.144Z,15.57
2022-10-04T16:34:09.046Z,15.46
2022-10-04T16:36:40.531Z,15.38
2022-10-04T16:39:31.104Z,15.29
2022-10-04T16:42:02.694Z,15.21
2022-10-04T16:44:34.577Z,15.17
2022-10-04T16:47:07.004Z,15.13
2022-10-04T16:49:41.316Z,15.02
2022-10-04T16:52:13.313Z,14.95
2022-10-04T16:54:45.112Z,14.87
2022-10-04T16:57:16.648Z,14.81
2022-10-04T16:59:48.389Z,14.79
2022-10-04T17:02:19.855Z,14.69
2022-10-04T17:04:55.913Z,14.63
2022-10-04T17:07:27.445Z,14.56
2022-10-04T17:09:59.261Z,14.52
2022-10-04T17:12:35.196Z,14.45
2022-10-04T17:15:07.655Z,14.39
2022-10-04T17:17:39.152Z,14.29
2022-10-04T17:20:11.112Z,14.19
2022-10-04T17:22:42.588Z,14.17
2022-10-04T17:25:14.616Z,14.14
2022-10-04T17:27:46.177Z,14.09
2022-10-04T17:30:18.601Z,14.04
2022-10-04T17:32:50.078Z,13.99
2022-10-04T17:35:21.906Z,13.99
2022-10-04T17:37:53.465Z,13.86
2022-10-04T17:40:27.801Z,13.85
2022-10-04T17:43:00.793Z,13.79
2022-10-04T17:45:32.312Z,13.81
2022-10-04T17:48:22.894Z,13.80
2022-10-04T17:51:12.983Z,13.68
2022-10-04T17:54:03.616Z,13.57
2022-10-04T17:56:35.089Z,13.53
2022-10-04T17:59:06.873Z,13.50
2022-10-04T18:01:38.683Z,13.46
2022-10-04T18:04:10.604Z,13.42
2022-10-04T18:06:43.025Z,13.36
2022-10-04T18:09:19.416Z,13.31
2022-10-04T18:11:51.101Z,13.31
2022-10-04T18:14:22.901Z,13.28
2022-10-04T18:16:54.697Z,13.27
2022-10-04T18:19:26.545Z,13.25
2022-10-04T18:21:58.004Z,13.17
2022-10-04T18:24:30.762Z,13.10
2022-10-04T18:27:05.103Z,13.08
2022-10-04T18:29:38.219Z,13.02
2022-10-04T18:32:09.687Z,12.92
2022-10-04T18:34:42.078Z,12.88
2022-10-04T18:37:13.658Z,12.83
2022-10-04T18:39:45.488Z,12.79
2022-10-04T18:42:17.030Z,12.74
2022-10-04T18:44:48.874Z,12.67
2022-10-04T18:47:21.197Z,12.63
2022-10-04T18:49:52.745Z,12.64
2022-10-04T18:52:24.249Z,12.59
2022-10-04T18:54:56.157Z,12.56
2022-10-04T18:57:27.657Z,12.50
2022-10-04T19:00:18.169Z,12.46
2022-10-04T19:02:49.977Z,12.45
2022-10-04T19:05:23.615Z,12.40
2022-10-04T19:07:55.424Z,12.36
2022-10-04T19:10:27.089Z,12.35
2022-10-04T19:12:59.094Z,12.32
2022-10-04T19:15:30.632Z,12.26
2022-10-04T19:18:02.454Z,12.21
2022-10-04T19:20:33.938Z,12.16
2022-10-04T19:23:07.276Z,12.18
2022-10-04T19:25:39.371Z,12.18
2022-10-04T19:28:11.614Z,12.18
2022-10-04T19:30:43.370Z,12.14
2022-10-04T19:33:15.407Z,12.11
2022-10-04T19:35:46.975Z,12.09
2022-10-04T19:38:18.803Z,12.05
2022-10-04T19:40:50.268Z,12.05
2022-10-04T19:43:22.165Z,12.01
2022-10-04T19:45:53.760Z,11.99
2022-10-04T19:48:25.936Z,11.98
2022-10-04T19:50:59.653Z,11.93
2022-10-04T19:53:31.557Z,11.85
2022-10-04T19:56:03.028Z,11.81
2022-10-04T19:58:35.044Z,11.79
2022-10-04T20:01:07.309Z,11.76
2022-10-04T20:03:39.170Z,11.76
2022-10-04T20:06:10.692Z,11.73
2022-10-04T20:08:42.272Z,11.70
2022-10-04T20:11:13.746Z,11.67
2022-10-04T20:13:45.582Z,11.65
2022-10-04T20:16:17.317Z,11.64
2022-10-04T20:18:50.178Z,11.63
2022-10-04T20:21:26.181Z,11.62
2022-10-04T20:23:59.346Z,11.61
2022-10-04T20:26:53.732Z,11.54
2022-10-04T20:29:26.331Z,11.53
2022-10-04T20:31:58.365Z,11.50
2022-10-04T20:34:29.856Z,11.50
2022-10-04T20:37:01.735Z,11.44
2022-10-04T20:39:33.237Z,11.41
2022-10-04T20:42:20.231Z,11.37
2022-10-04T20:44:54.494Z,11.33
2022-10-04T20:47:28.221Z,11.37
2022-10-04T20:50:00.554Z,11.27
2022-10-04T20:52:32.576Z,11.25
2022-10-04T20:55:06.447Z,11.22
2022-10-04T20:57:40.698Z,11.22
2022-10-04T21:00:12.323Z,11.18
2022-10-04T21:02:44.171Z,11.15
2022-10-04T21:05:16.058Z,11.17
2022-10-04T21:07:47.815Z,11.14
2022-10-04T21:10:19.775Z,11.12
2022-10-04T21:12:51.543Z,11.15
2022-10-04T21:15:23.064Z,11.11
2022-10-04T21:17:54.545Z,11.12
2022-10-04T21:20:26.045Z,11.13
2022-10-04T21:22:57.900Z,11.13
2022-10-04T21:25:30.929Z,11.16
2022-10-04T21:28:02.814Z,11.18
2022-10-04T21:30:34.319Z,11.16
2022-10-04T21:33:06.181Z,11.14
2022-10-04T21:35:37.652Z,11.14
2022-10-04T21:38:09.419Z,11.15
2022-10-04T21:40:40.924Z,11.15
2022-10-04T21:43:12.688Z,11.13
2022-10-04T21:45:44.286Z,11.13
2022-10-04T21:48:16.342Z,11.11
2022-10-04T21:50:47.827Z,11.10
2022-10-04T21:53:19.352Z,11.09
2022-10-04T21:55:50.906Z,11.06
2022-10-04T21:58:23.033Z,11.02
2022-10-04T22:00:54.520Z,10.99
2022-10-04T22:03:26.381Z,10.99
2022-10-04T22:05:57.885Z,10.94
2022-10-04T22:08:29.813Z,10.94
2022-10-04T22:11:01.339Z,10.93
2022-10-04T22:13:33.360Z,10.88
2022-10-04T22:16:04.910Z,10.85
2022-10-04T22:18:36.825Z,10.85
2022-10-04T22:21:08.322Z,10.84
2022-10-04T22:23:40.439Z,10.82
2022-10-04T22:26:12.156Z,10.79
2022-10-04T22:28:44.007Z,10.76
2022-10-04T22:31:15.570Z,10.75
2022-10-04T22:33:47.520Z,10.71
2022-10-04T22:36:19.118Z,10.70
2022-10-04T22:38:50.633Z,10.70
2022-10-04T22:41:22.109Z,10.70
2022-10-04T22:43:53.858Z,10.66
2022-10-04T22:46:25.446Z,10.64
2022-10-04T22:48:57.399Z,10.62
2022-10-04T22:51:28.889Z,10.61
2022-10-04T22:54:00.721Z,10.60
2022-10-04T22:56:32.215Z,10.59
2022-10-04T22:59:03.996Z,10.55
2022-10-04T23:01:35.475Z,10.58
2022-10-04T23:04:07.378Z,10.60
2022-10-04T23:06:38.853Z,10.60
2022-10-04T23:09:10.412Z,10.59
2022-10-04T23:11:41.880Z,10.58
2022-10-04T23:14:13.857Z,10.57
2022-10-04T23:16:45.837Z,10.54
2022-10-04T23:19:20.684Z,10.51
2022-10-04T23:21:52.509Z,10.51
2022-10-04T23:24:24.051Z,10.50
2022-10-04T23:26:56.574Z,10.47
2022-10-04T23:29:28.058Z,10.45
2022-10-04T23:31:59.995Z,10.44
2022-10-04T23:34:31.571Z,10.45
2022-10-04T23:37:03.350Z,10.41
2022-10-04T23:39:34.899Z,10.37
2022-10-04T23:42:06.663Z,10.34
2022-10-04T23:44:38.177Z,10.34
2022-10-04T23:47:10.052Z,10.32
2022-10-04T23:49:41.531Z,10.27
2022-10-04T23:52:13.366Z,10.27
2022-10-04T23:54:44.927Z,10.22
2022-10-04T23:57:16.765Z,10.22
2022-10-04T23:59:48.232Z,10.18
